LCGO2: Spring Creek Locust Grove, OK

Data processed at Mon Apr 16 2018 23:54


All information presented herein is the property of the government of the United States of America and may be revised or deleted at any time without prior notice.
Dissemination of this information without the expressed written consent of the Public Affairs Office, Tulsa District U.S. Army Corps of Engineers is strictly prohibited.
These data are gathered electronically and, as presented, have not undergone any form of quality control. These data are not guaranteed to be valid or correct.
Go to home page.
Go to station list.


Previous Day
Next Day
Current Day


    
SHEF ID:       LCGO2     Spring Creek at Locust Grove
STATION TYPE:  

               PRECIP     STAGE  RIV-FLOW   VOLTAGE  BAT-LOAD
                   in        ft       cfs      volt      volt
              Ccp-Rev   Ccp-Rev   Ccp-Rev   Ccp-Rev   Ccp-Rev
(US/Central)
04/14 00:00      0.00      ----      ----     12.65     12.57
04/14 01:00      0.00     12.72       110     12.65     12.57
04/14 02:00      0.00     12.83       121     12.65     12.57
04/14 03:00      0.00     12.71       109     12.65     12.57
04/14 04:00      0.00     12.84       122     12.65     12.57
04/14 05:00      0.00     12.82       120     12.57     12.49
04/14 06:00      0.00     12.83       121     12.57     12.49
04/14 07:00      0.00     12.78       116     12.57     12.49
04/14 08:00      0.00     12.79       117     12.97     12.73
04/14 09:00      0.00     12.84       122     13.53     13.29
04/14 10:00      0.00     12.79       117     13.53     13.44
04/14 11:00      0.00     12.75       113     13.37     13.29
04/14 12:00      0.00     12.77       115     13.44     13.29
04/14 13:00      0.00     12.69       107     13.60     13.29
04/14 14:00      0.00     12.78       116     13.37     13.29
04/14 15:00      0.00     12.80       118     13.37     13.29
04/14 16:00      0.00     12.79       117     13.44     13.29
04/14 17:00      0.00      ----      ----     13.37     13.29
04/14 18:00      0.00      ----      ----     13.44     13.37
04/14 19:00      0.00      ----      ----     13.44     13.37
04/14 20:00      0.00     12.69       107     13.21     13.13
04/14 21:00      0.00     12.82       120     13.05     12.97
04/14 22:00      0.00      ----      ----     12.89     12.81
04/14 23:00      0.00      ----      ----     12.81     12.73